Time;durP1;ratioP1;P1;durP2;ratioP2;P2;SDS_P1;SDS_P2;PMS_P1;PMS_P2;Temp;Humidity;BMP_temperature;BMP_pressure;BME280_temperature;BME280_humidity;BME280_pressure;Samples;Min_cycle;Max_cycle;Signal;HPM_P1;HPM_P2
2023/03/10 00:01:12;;;;;;;;;3.00;1.75;;;;;;;;4973879;28;9571;-85
2023/03/10 00:03:40;;;;;;;;;4.25;1.75;;;;;;;;4951250;28;9566;-85
2023/03/10 00:06:08;;;;;;;;;1.25;1.25;;;;;;;;4971655;28;9536;-85
2023/03/10 00:08:36;;;;;;;;;1.00;1.00;;;;;;;;4971777;28;9619;-83
2023/03/10 00:11:04;;;;;;;;;2.50;2.50;;;;;;;;4973398;28;9654;-84
2023/03/10 00:13:33;;;;;;;;;1.25;1.25;;;;;;;;4977186;28;9606;-85
2023/03/10 00:16:00;;;;;;;;;1.00;1.00;;;;;;;;4977711;28;9574;-85
2023/03/10 00:18:28;;;;;;;;;0.00;0.00;;;;;;;;4972980;28;9548;-85
2023/03/10 00:20:57;;;;;;;;;1.00;1.00;;;;;;;;4973631;28;9633;-85
2023/03/10 00:23:26;;;;;;;;;0.00;0.00;;;;;;;;4959438;28;9625;-85
2023/03/10 00:25:57;;;;;;;;;1.25;1.00;;;;;;;;4972858;28;10362;-86
2023/03/10 00:28:25;;;;;;;;;3.50;0.00;;;;;;;;4976309;28;9490;-85
2023/03/10 00:31:02;;;;;;;;;1.75;1.75;;;;;;;;4967769;28;9653;-85
2023/03/10 00:33:31;;;;;;;;;2.00;0.00;;;;;;;;4971620;28;9725;-85
2023/03/10 00:36:07;;;;;;;;;0.25;0.25;;;;;;;;4977423;28;9651;-85
2023/03/10 00:38:36;;;;;;;;;2.00;1.00;;;;;;;;4966433;28;9638;-85
2023/03/10 00:41:05;;;;;;;;;0.00;0.00;;;;;;;;4970056;28;9459;-86
2023/03/10 00:43:34;;;;;;;;;2.00;0.25;;;;;;;;4973412;28;9677;-85
2023/03/10 00:46:04;;;;;;;;;1.50;0.25;;;;;;;;4973797;28;9729;-86
2023/03/10 00:48:33;;;;;;;;;2.00;0.50;;;;;;;;4965872;28;9477;-85
2023/03/10 00:51:00;;;;;;;;;1.00;1.00;;;;;;;;4974390;28;9564;-85
2023/03/10 00:53:28;;;;;;;;;0.00;0.00;;;;;;;;4968396;28;9645;-85
2023/03/10 00:56:00;;;;;;;;;0.00;0.00;;;;;;;;4970261;28;9512;-87
2023/03/10 00:58:29;;;;;;;;;0.00;0.00;;;;;;;;4971789;28;9557;-84
2023/03/10 01:00:58;;;;;;;;;0.00;0.00;;;;;;;;4978052;28;9574;-84
2023/03/10 01:03:27;;;;;;;;;1.75;1.00;;;;;;;;4979148;28;9528;-84
2023/03/10 01:05:55;;;;;;;;;0.00;0.00;;;;;;;;4978484;28;9561;-83
2023/03/10 01:08:23;;;;;;;;;1.25;0.50;;;;;;;;4981640;28;9606;-84
2023/03/10 01:10:53;;;;;;;;;0.25;0.25;;;;;;;;4973681;28;9769;-84
2023/03/10 01:13:20;;;;;;;;;3.00;1.00;;;;;;;;4980466;28;10401;-85
2023/03/10 01:15:49;;;;;;;;;0.00;0.00;;;;;;;;4954173;28;9699;-84
2023/03/10 01:18:20;;;;;;;;;1.00;1.00;;;;;;;;4980527;28;9652;-84
2023/03/10 01:20:49;;;;;;;;;1.00;1.00;;;;;;;;4993802;28;9722;-84
2023/03/10 01:23:18;;;;;;;;;0.00;0.00;;;;;;;;4975081;28;9636;-85
2023/03/10 01:25:47;;;;;;;;;2.00;1.75;;;;;;;;4978388;28;9690;-85
2023/03/10 01:28:15;;;;;;;;;0.50;0.50;;;;;;;;4977299;28;9846;-84
2023/03/10 01:30:43;;;;;;;;;2.50;1.00;;;;;;;;4977398;28;9652;-84
2023/03/10 01:33:11;;;;;;;;;0.75;0.75;;;;;;;;4979844;28;9795;-84
2023/03/10 01:35:39;;;;;;;;;3.00;1.00;;;;;;;;4979749;28;9796;-85
2023/03/10 01:38:09;;;;;;;;;1.25;1.25;;;;;;;;4973716;28;9791;-84
2023/03/10 01:40:37;;;;;;;;;1.00;1.00;;;;;;;;4975390;28;9890;-84
2023/03/10 01:43:27;;;;;;;;;1.00;0.00;;;;;;;;4979019;28;9867;-84
2023/03/10 01:46:28;;;;;;;;;0.00;0.00;;;;;;;;4973498;28;9903;-83
2023/03/10 01:48:57;;;;;;;;;1.25;1.00;;;;;;;;4978039;28;9797;-86
2023/03/10 01:51:25;;;;;;;;;1.25;1.00;;;;;;;;4976806;28;9878;-84
2023/03/10 01:53:54;;;;;;;;;3.00;1.50;;;;;;;;4974220;28;9869;-84
2023/03/10 01:56:22;;;;;;;;;0.50;0.50;;;;;;;;4977675;28;10047;-83
2023/03/10 01:58:52;;;;;;;;;3.25;0.00;;;;;;;;4977122;28;9927;-83
2023/03/10 02:01:20;;;;;;;;;0.00;0.00;;;;;;;;4972650;28;10570;-84
2023/03/10 02:03:53;;;;;;;;;1.50;1.50;;;;;;;;4978627;28;9784;-84
2023/03/10 02:06:22;;;;;;;;;0.50;0.00;;;;;;;;4976202;28;9807;-84
2023/03/10 02:08:52;;;;;;;;;0.75;0.75;;;;;;;;4976318;28;10291;-84
2023/03/10 02:11:22;;;;;;;;;2.00;1.00;;;;;;;;4979119;28;9966;-84
2023/03/10 02:13:49;;;;;;;;;2.00;0.00;;;;;;;;4975691;28;10039;-84
2023/03/10 02:16:19;;;;;;;;;0.25;0.25;;;;;;;;4977916;28;9787;-84
2023/03/10 02:18:47;;;;;;;;;0.00;0.00;;;;;;;;4976131;28;10721;-84
2023/03/10 02:21:21;;;;;;;;;4.50;1.00;;;;;;;;4975882;28;9966;-84
2023/03/10 02:23:53;;;;;;;;;2.00;0.50;;;;;;;;4977572;28;10891;-85
2023/03/10 02:26:27;;;;;;;;;1.00;1.00;;;;;;;;4976473;28;10102;-83
2023/03/10 02:28:57;;;;;;;;;1.25;0.25;;;;;;;;4974131;28;10100;-84
2023/03/10 02:31:26;;;;;;;;;1.75;0.00;;;;;;;;4957769;28;10119;-86
2023/03/10 02:33:53;;;;;;;;;2.25;2.25;;;;;;;;4977052;28;10061;-83
2023/03/10 02:36:22;;;;;;;;;2.50;1.00;;;;;;;;4980850;28;10103;-84
2023/03/10 02:38:50;;;;;;;;;1.00;1.00;;;;;;;;4972771;28;10048;-84
2023/03/10 02:41:23;;;;;;;;;1.00;1.00;;;;;;;;4971511;28;10600;-83
2023/03/10 02:43:51;;;;;;;;;0.00;0.00;;;;;;;;4960803;28;9904;-83
2023/03/10 02:46:21;;;;;;;;;2.25;1.00;;;;;;;;4975683;28;9917;-83
2023/03/10 02:48:48;;;;;;;;;0.00;0.00;;;;;;;;4973971;28;10102;-84
2023/03/10 02:51:20;;;;;;;;;3.75;2.50;;;;;;;;4971803;28;10098;-84
2023/03/10 02:53:48;;;;;;;;;2.25;1.25;;;;;;;;4978162;28;10133;-82
2023/03/10 02:56:15;;;;;;;;;2.00;2.00;;;;;;;;4969736;28;10147;-84
2023/03/10 02:58:43;;;;;;;;;3.00;2.00;;;;;;;;4977237;28;10053;-83
2023/03/10 03:01:10;;;;;;;;;3.00;2.00;;;;;;;;4974592;28;10036;-84
2023/03/10 03:03:41;;;;;;;;;2.25;2.25;;;;;;;;4973576;28;10129;-83
2023/03/10 03:06:08;;;;;;;;;5.50;2.50;;;;;;;;4974900;28;10119;-85
2023/03/10 03:08:36;;;;;;;;;3.50;2.50;;;;;;;;4972387;28;10032;-84
2023/03/10 03:11:04;;;;;;;;;4.00;3.00;;;;;;;;4975715;28;10124;-84
2023/03/10 03:13:32;;;;;;;;;3.25;2.50;;;;;;;;4971565;28;11063;-83
2023/03/10 03:15:59;;;;;;;;;3.00;1.50;;;;;;;;4976858;28;10322;-84
2023/03/10 03:18:27;;;;;;;;;2.25;2.25;;;;;;;;4977201;28;10214;-83
2023/03/10 03:20:56;;;;;;;;;2.75;2.75;;;;;;;;4970840;28;10551;-83
2023/03/10 03:23:25;;;;;;;;;3.75;3.75;;;;;;;;4967572;28;10117;-83
2023/03/10 03:25:53;;;;;;;;;4.50;2.50;;;;;;;;4973135;28;10267;-83
2023/03/10 03:28:20;;;;;;;;;6.75;3.00;;;;;;;;4975936;28;10290;-85
2023/03/10 03:30:48;;;;;;;;;2.00;1.50;;;;;;;;4970316;28;10356;-83
2023/03/10 03:33:15;;;;;;;;;4.00;1.00;;;;;;;;4974374;28;10227;-82
2023/03/10 03:35:44;;;;;;;;;2.00;2.00;;;;;;;;4975819;28;10964;-84
2023/03/10 03:38:13;;;;;;;;;2.75;2.00;;;;;;;;4976260;28;10351;-83
2023/03/10 03:40:43;;;;;;;;;3.50;2.25;;;;;;;;4956463;28;10229;-84
2023/03/10 03:43:13;;;;;;;;;4.25;3.75;;;;;;;;4971308;28;10364;-84
2023/03/10 03:45:41;;;;;;;;;2.00;2.00;;;;;;;;4975062;28;10429;-84
2023/03/10 03:48:09;;;;;;;;;2.75;1.75;;;;;;;;4976969;28;10372;-83
2023/03/10 03:50:36;;;;;;;;;3.75;1.75;;;;;;;;4974772;28;10470;-83
2023/03/10 03:53:04;;;;;;;;;4.00;2.50;;;;;;;;4969545;28;10328;-83
2023/03/10 03:55:34;;;;;;;;;5.25;4.50;;;;;;;;4979497;28;10535;-83
2023/03/10 03:58:01;;;;;;;;;4.50;3.25;;;;;;;;4975722;28;10957;-83
2023/03/10 04:00:29;;;;;;;;;2.00;2.00;;;;;;;;4974495;28;10483;-84
2023/03/10 04:02:58;;;;;;;;;1.75;1.75;;;;;;;;4959276;28;10424;-84
2023/03/10 04:05:26;;;;;;;;;3.50;3.50;;;;;;;;4977424;28;10458;-83
2023/03/10 04:07:53;;;;;;;;;4.25;3.25;;;;;;;;4974661;28;11216;-83
2023/03/10 04:10:22;;;;;;;;;9.25;5.25;;;;;;;;4978519;28;10276;-83
2023/03/10 04:12:51;;;;;;;;;4.50;4.25;;;;;;;;4975237;28;10524;-83
2023/03/10 04:15:19;;;;;;;;;5.00;4.00;;;;;;;;4958403;28;10505;-84
2023/03/10 04:17:46;;;;;;;;;2.25;2.25;;;;;;;;4978459;28;10495;-83
2023/03/10 04:20:14;;;;;;;;;3.50;3.50;;;;;;;;4976461;28;10396;-84
2023/03/10 04:22:42;;;;;;;;;3.00;3.00;;;;;;;;4977874;28;10480;-83
2023/03/10 04:25:10;;;;;;;;;4.00;4.00;;;;;;;;4969792;28;10372;-83
2023/03/10 04:27:38;;;;;;;;;5.50;3.75;;;;;;;;4979042;28;10470;-83
2023/03/10 04:30:10;;;;;;;;;3.00;3.00;;;;;;;;4971165;28;10345;-83
2023/03/10 04:32:38;;;;;;;;;3.25;3.25;;;;;;;;4972716;28;10469;-83
2023/03/10 04:35:07;;;;;;;;;5.00;4.25;;;;;;;;4973328;28;10260;-83
2023/03/10 04:37:34;;;;;;;;;6.50;4.00;;;;;;;;4974448;28;10253;-83
2023/03/10 04:40:07;;;;;;;;;6.00;4.00;;;;;;;;4979967;28;10470;-82
2023/03/10 04:42:34;;;;;;;;;3.00;3.00;;;;;;;;4979160;28;10283;-83
2023/03/10 04:45:02;;;;;;;;;3.00;3.00;;;;;;;;4971270;28;10301;-83
2023/03/10 04:47:31;;;;;;;;;5.75;4.00;;;;;;;;4975778;28;10891;-81
2023/03/10 04:49:58;;;;;;;;;4.00;2.50;;;;;;;;4975578;28;10360;-85
2023/03/10 04:52:26;;;;;;;;;2.00;2.00;;;;;;;;4981696;28;10267;-85
2023/03/10 04:54:53;;;;;;;;;5.25;3.50;;;;;;;;4976386;28;10187;-84
2023/03/10 04:57:23;;;;;;;;;4.00;3.00;;;;;;;;4973365;28;10380;-84
2023/03/10 04:59:50;;;;;;;;;2.50;2.00;;;;;;;;4973571;28;10130;-84
2023/03/10 05:02:18;;;;;;;;;1.50;1.50;;;;;;;;4978357;28;10261;-84
2023/03/10 05:04:47;;;;;;;;;1.00;1.00;;;;;;;;4975383;28;10260;-82
2023/03/10 05:07:14;;;;;;;;;2.75;1.50;;;;;;;;4973397;28;10270;-82
2023/03/10 05:09:42;;;;;;;;;2.00;2.00;;;;;;;;4971195;28;10417;-83
2023/03/10 05:12:11;;;;;;;;;2.25;0.75;;;;;;;;4981184;28;10408;-83
2023/03/10 05:14:38;;;;;;;;;1.50;0.00;;;;;;;;4977671;28;10351;-83
2023/03/10 05:17:06;;;;;;;;;0.00;0.00;;;;;;;;4977199;28;10131;-82
2023/03/10 05:19:34;;;;;;;;;0.25;0.00;;;;;;;;4976071;28;10108;-82
2023/03/10 05:22:04;;;;;;;;;0.00;0.00;;;;;;;;4972423;28;10174;-82
2023/03/10 05:24:32;;;;;;;;;0.00;0.00;;;;;;;;4971696;28;10181;-83
2023/03/10 05:27:02;;;;;;;;;3.00;0.00;;;;;;;;4977305;28;10197;-83
2023/03/10 05:29:30;;;;;;;;;0.25;0.00;;;;;;;;4974491;28;10205;-81
2023/03/10 05:31:57;;;;;;;;;1.00;1.00;;;;;;;;4981696;28;10237;-81
2023/03/10 05:34:26;;;;;;;;;1.00;0.00;;;;;;;;4979377;28;11089;-83
2023/03/10 05:36:55;;;;;;;;;0.00;0.00;;;;;;;;4975352;28;10255;-82
2023/03/10 05:39:24;;;;;;;;;1.25;0.00;;;;;;;;4978143;28;10258;-83
2023/03/10 05:41:52;;;;;;;;;0.00;0.00;;;;;;;;4975863;28;10390;-82
2023/03/10 05:44:19;;;;;;;;;1.00;0.00;;;;;;;;4978851;28;10311;-82
2023/03/10 05:46:47;;;;;;;;;1.00;0.00;;;;;;;;4976827;28;10449;-82
2023/03/10 05:49:14;;;;;;;;;0.00;0.00;;;;;;;;4975869;28;11203;-81
2023/03/10 05:51:42;;;;;;;;;0.00;0.00;;;;;;;;4972678;28;10424;-82
2023/03/10 05:54:10;;;;;;;;;0.00;0.00;;;;;;;;4978403;28;11030;-82
2023/03/10 05:56:39;;;;;;;;;0.00;0.00;;;;;;;;4978706;28;10445;-83
2023/03/10 05:59:07;;;;;;;;;0.25;0.25;;;;;;;;4976710;28;11072;-82
2023/03/10 06:01:35;;;;;;;;;0.00;0.00;;;;;;;;4973709;28;10469;-83
2023/03/10 06:04:03;;;;;;;;;1.00;0.00;;;;;;;;4979620;28;10549;-82
2023/03/10 06:06:32;;;;;;;;;1.75;0.00;;;;;;;;4980224;28;10512;-82
2023/03/10 06:09:00;;;;;;;;;0.00;0.00;;;;;;;;4975891;28;10980;-82
2023/03/10 06:11:28;;;;;;;;;0.50;0.50;;;;;;;;4977348;28;10569;-82
2023/03/10 06:13:57;;;;;;;;;0.50;0.00;;;;;;;;4974552;28;10509;-83
2023/03/10 06:16:24;;;;;;;;;1.00;1.00;;;;;;;;4976412;28;11325;-82
2023/03/10 06:18:57;;;;;;;;;0.00;0.00;;;;;;;;4976836;28;10489;-82
2023/03/10 06:21:27;;;;;;;;;1.50;0.75;;;;;;;;4975776;28;10472;-82
2023/03/10 06:23:54;;;;;;;;;0.00;0.00;;;;;;;;4975773;28;10555;-83
2023/03/10 06:26:23;;;;;;;;;0.00;0.00;;;;;;;;4974288;28;10485;-82
2023/03/10 06:28:50;;;;;;;;;0.25;0.25;;;;;;;;4973180;28;10628;-81
2023/03/10 06:31:23;;;;;;;;;0.00;0.00;;;;;;;;4978369;28;10688;-81
2023/03/10 06:33:51;;;;;;;;;0.00;0.00;;;;;;;;4975660;28;10780;-81
2023/03/10 06:36:20;;;;;;;;;0.00;0.00;;;;;;;;4976006;28;10569;-80
2023/03/10 06:38:48;;;;;;;;;0.25;0.25;;;;;;;;4972796;28;10539;-72
2023/03/10 06:41:16;;;;;;;;;0.00;0.00;;;;;;;;4980602;28;10646;-74
2023/03/10 06:43:44;;;;;;;;;0.00;0.00;;;;;;;;4974015;28;10708;-72
2023/03/10 06:46:12;;;;;;;;;0.75;0.75;;;;;;;;4974454;28;11512;-73
2023/03/10 06:48:42;;;;;;;;;2.00;2.00;;;;;;;;4967875;28;10639;-73
2023/03/10 06:51:11;;;;;;;;;0.00;0.00;;;;;;;;4977372;28;10977;-73
2023/03/10 06:53:39;;;;;;;;;0.00;0.00;;;;;;;;4977408;28;10682;-73
2023/03/10 06:56:09;;;;;;;;;1.75;0.00;;;;;;;;4977598;28;11922;-73
2023/03/10 06:58:37;;;;;;;;;0.00;0.00;;;;;;;;4973917;28;10571;-74
2023/03/10 07:01:06;;;;;;;;;2.00;0.00;;;;;;;;4971903;28;10708;-71
2023/03/10 07:03:33;;;;;;;;;0.00;0.00;;;;;;;;4973147;28;10748;-71
2023/03/10 07:06:03;;;;;;;;;0.25;0.25;;;;;;;;4976879;28;10710;-72
2023/03/10 07:08:31;;;;;;;;;0.00;0.00;;;;;;;;4974959;28;10794;-71
2023/03/10 07:10:58;;;;;;;;;0.00;0.00;;;;;;;;4963007;28;10602;-74
2023/03/10 07:13:26;;;;;;;;;0.00;0.00;;;;;;;;4965731;28;10755;-74
2023/03/10 07:15:54;;;;;;;;;0.00;0.00;;;;;;;;4974113;28;10769;-73
2023/03/10 07:18:21;;;;;;;;;2.00;0.00;;;;;;;;4979254;28;10693;-73
2023/03/10 07:20:51;;;;;;;;;0.25;0.25;;;;;;;;4971204;28;10707;-75
2023/03/10 07:23:21;;;;;;;;;0.00;0.00;;;;;;;;4975757;28;10606;-73
2023/03/10 07:25:52;;;;;;;;;0.00;0.00;;;;;;;;4973854;28;10701;-72
2023/03/10 07:28:20;;;;;;;;;2.00;0.00;;;;;;;;4975734;28;10588;-72
2023/03/10 07:30:48;;;;;;;;;0.00;0.00;;;;;;;;4975320;28;11214;-72
2023/03/10 07:33:16;;;;;;;;;0.00;0.00;;;;;;;;4971387;28;10462;-72
2023/03/10 07:35:44;;;;;;;;;2.00;0.25;;;;;;;;4975688;28;10556;-72
2023/03/10 07:38:12;;;;;;;;;0.00;0.00;;;;;;;;4974930;28;10572;-72
2023/03/10 07:40:41;;;;;;;;;0.00;0.00;;;;;;;;4954796;28;10676;-73
2023/03/10 07:43:09;;;;;;;;;0.00;0.00;;;;;;;;4976048;28;10553;-73
2023/03/10 07:45:38;;;;;;;;;1.00;1.00;;;;;;;;4970943;28;10631;-73
2023/03/10 07:48:05;;;;;;;;;0.00;0.00;;;;;;;;4975094;28;10729;-72
2023/03/10 07:50:33;;;;;;;;;0.00;0.00;;;;;;;;4974068;28;10722;-71
2023/03/10 07:53:00;;;;;;;;;0.00;0.00;;;;;;;;4973397;28;10548;-72
2023/03/10 07:55:28;;;;;;;;;0.00;0.00;;;;;;;;4970189;28;10575;-73
2023/03/10 07:57:59;;;;;;;;;0.00;0.00;;;;;;;;4971069;28;10419;-73
2023/03/10 08:00:26;;;;;;;;;0.00;0.00;;;;;;;;4975576;28;10392;-72
2023/03/10 08:02:54;;;;;;;;;0.00;0.00;;;;;;;;4974093;28;10323;-73
2023/03/10 08:05:22;;;;;;;;;0.00;0.00;;;;;;;;4968884;28;10382;-73
2023/03/10 08:07:49;;;;;;;;;0.00;0.00;;;;;;;;4978216;28;10501;-72
2023/03/10 08:10:17;;;;;;;;;0.00;0.00;;;;;;;;4973075;28;10416;-77
2023/03/10 08:12:44;;;;;;;;;0.00;0.00;;;;;;;;4974681;28;10425;-73
2023/03/10 08:15:13;;;;;;;;;0.00;0.00;;;;;;;;4974040;28;10411;-73
2023/03/10 08:17:41;;;;;;;;;0.00;0.00;;;;;;;;4977090;28;10406;-73
2023/03/10 08:20:10;;;;;;;;;0.00;0.00;;;;;;;;4975361;28;10324;-74
2023/03/10 08:22:37;;;;;;;;;0.00;0.00;;;;;;;;4973726;28;10384;-73
2023/03/10 08:25:05;;;;;;;;;0.00;0.00;;;;;;;;4975926;28;10437;-72
2023/03/10 08:27:33;;;;;;;;;0.00;0.00;;;;;;;;4974519;28;10330;-71
2023/03/10 08:30:00;;;;;;;;;0.00;0.00;;;;;;;;4973111;28;10164;-72
2023/03/10 08:32:29;;;;;;;;;0.00;0.00;;;;;;;;4972575;28;11106;-70
2023/03/10 08:34:56;;;;;;;;;0.00;0.00;;;;;;;;4970613;28;10423;-71
2023/03/10 08:37:25;;;;;;;;;0.00;0.00;;;;;;;;4968869;28;10402;-72
2023/03/10 08:39:55;;;;;;;;;0.00;0.00;;;;;;;;4963603;28;10405;-71
2023/03/10 08:42:22;;;;;;;;;0.00;0.00;;;;;;;;4970975;28;10383;-71
2023/03/10 08:44:49;;;;;;;;;0.00;0.00;;;;;;;;4971432;28;10460;-70
2023/03/10 08:47:17;;;;;;;;;0.00;0.00;;;;;;;;4973213;28;10420;-70
2023/03/10 08:49:47;;;;;;;;;0.00;0.00;;;;;;;;4976585;28;10364;-73
2023/03/10 08:52:14;;;;;;;;;0.00;0.00;;;;;;;;4972322;28;10375;-73
2023/03/10 08:54:42;;;;;;;;;1.00;0.00;;;;;;;;4976966;28;10289;-72
2023/03/10 08:57:10;;;;;;;;;0.00;0.00;;;;;;;;4974369;28;10387;-71
2023/03/10 08:59:38;;;;;;;;;0.00;0.00;;;;;;;;4971607;28;10316;-73
2023/03/10 09:02:05;;;;;;;;;0.00;0.00;;;;;;;;4971182;28;11206;-75
2023/03/10 09:04:33;;;;;;;;;0.00;0.00;;;;;;;;4972992;28;10333;-73
2023/03/10 09:07:02;;;;;;;;;0.00;0.00;;;;;;;;4975546;28;10539;-72
2023/03/10 09:09:33;;;;;;;;;0.00;0.00;;;;;;;;4972637;28;10460;-75
2023/03/10 09:12:00;;;;;;;;;0.75;0.00;;;;;;;;4976998;28;10485;-74
2023/03/10 09:14:28;;;;;;;;;0.00;0.00;;;;;;;;4973433;28;10403;-74
2023/03/10 09:16:55;;;;;;;;;0.00;0.00;;;;;;;;4970403;28;10495;-73
2023/03/10 09:19:23;;;;;;;;;0.00;0.00;;;;;;;;4972426;28;10623;-72
2023/03/10 09:21:50;;;;;;;;;0.00;0.00;;;;;;;;4975603;28;10589;-73
2023/03/10 09:24:19;;;;;;;;;0.00;0.00;;;;;;;;4968182;28;10548;-75
2023/03/10 09:26:47;;;;;;;;;1.00;0.00;;;;;;;;4973444;28;10618;-74
2023/03/10 09:29:14;;;;;;;;;2.00;0.00;;;;;;;;4971993;28;10636;-71
2023/03/10 09:31:42;;;;;;;;;0.00;0.00;;;;;;;;4979074;28;10566;-72
2023/03/10 09:34:10;;;;;;;;;0.00;0.00;;;;;;;;4977187;28;10626;-73
2023/03/10 09:36:38;;;;;;;;;0.00;0.00;;;;;;;;4974095;28;10852;-75
2023/03/10 09:39:06;;;;;;;;;0.00;0.00;;;;;;;;4976078;28;10544;-74
2023/03/10 09:42:14;;;;;;;;;2.00;1.00;;;;;;;;4978542;28;10571;-76
2023/03/10 09:44:51;;;;;;;;;0.00;0.00;;;;;;;;4972932;28;10628;-72
2023/03/10 09:47:25;;;;;;;;;0.00;0.00;;;;;;;;4978636;28;10703;-73
2023/03/10 09:50:07;;;;;;;;;0.00;0.00;;;;;;;;4977467;28;10685;-72
2023/03/10 09:52:41;;;;;;;;;0.00;0.00;;;;;;;;4978388;28;10745;-74
2023/03/10 09:55:18;;;;;;;;;0.00;0.00;;;;;;;;4977042;28;10610;-77
2023/03/10 09:57:48;;;;;;;;;0.00;0.00;;;;;;;;4975775;28;10779;-75
2023/03/10 10:00:23;;;;;;;;;0.00;0.00;;;;;;;;4977592;28;10585;-81
2023/03/10 10:02:55;;;;;;;;;0.00;0.00;;;;;;;;4973611;28;10507;-75
2023/03/10 10:05:30;;;;;;;;;0.25;0.25;;;;;;;;4971960;28;10647;-78
2023/03/10 10:07:59;;;;;;;;;0.00;0.00;;;;;;;;4969217;28;10556;-76
2023/03/10 10:10:28;;;;;;;;;1.75;0.00;;;;;;;;4969239;28;10687;-76
2023/03/10 10:13:01;;;;;;;;;0.00;0.00;;;;;;;;4976885;28;10666;-77
2023/03/10 10:15:32;;;;;;;;;0.00;0.00;;;;;;;;4969045;28;10627;-75
2023/03/10 10:18:13;;;;;;;;;0.00;0.00;;;;;;;;4973855;28;10778;-76
2023/03/10 10:20:46;;;;;;;;;2.00;0.00;;;;;;;;4972647;28;10701;-76
2023/03/10 10:23:28;;;;;;;;;1.00;1.00;;;;;;;;4972553;28;10712;-76
2023/03/10 10:25:55;;;;;;;;;1.00;1.00;;;;;;;;4970663;28;10906;-76
2023/03/10 10:28:30;;;;;;;;;2.00;1.00;;;;;;;;4973844;28;10935;-77
2023/03/10 10:31:13;;;;;;;;;3.00;1.00;;;;;;;;4970909;28;10787;-77
2023/03/10 10:33:55;;;;;;;;;2.00;0.50;;;;;;;;4976375;28;10845;-76
2023/03/10 10:36:24;;;;;;;;;0.75;0.75;;;;;;;;4977260;28;10787;-76
2023/03/10 10:38:52;;;;;;;;;1.25;0.00;;;;;;;;4969578;28;10723;-78
2023/03/10 10:41:21;;;;;;;;;2.00;0.00;;;;;;;;4975001;28;11545;-76
2023/03/10 10:43:49;;;;;;;;;0.50;0.50;;;;;;;;4971524;28;10770;-76
2023/03/10 10:46:25;;;;;;;;;2.00;0.75;;;;;;;;4968383;28;10709;-77
2023/03/10 10:49:06;;;;;;;;;1.00;1.00;;;;;;;;4969530;28;11064;-77
2023/03/10 10:51:36;;;;;;;;;3.25;1.00;;;;;;;;4969632;28;11111;-76
2023/03/10 10:54:19;;;;;;;;;1.75;1.00;;;;;;;;4970565;28;11012;-76
2023/03/10 10:56:57;;;;;;;;;1.00;1.00;;;;;;;;4971934;28;11057;-76
2023/03/10 10:59:29;;;;;;;;;0.25;0.25;;;;;;;;4972161;28;11908;-76
2023/03/10 11:02:00;;;;;;;;;0.00;0.00;;;;;;;;4972726;28;10849;-77
2023/03/10 11:04:30;;;;;;;;;2.25;1.00;;;;;;;;4970385;28;10924;-77
2023/03/10 11:07:11;;;;;;;;;1.00;1.00;;;;;;;;4971754;28;11214;-76
2023/03/10 11:09:41;;;;;;;;;1.50;1.50;;;;;;;;4966569;28;11083;-74
2023/03/10 11:12:18;;;;;;;;;2.00;1.00;;;;;;;;4966893;28;11861;-78
2023/03/10 11:15:00;;;;;;;;;1.25;1.00;;;;;;;;4968867;28;11218;-76
2023/03/10 11:17:49;;;;;;;;;0.00;0.00;;;;;;;;4970109;28;10970;-77
2023/03/10 11:20:26;;;;;;;;;1.00;0.00;;;;;;;;4967282;28;11837;-77
2023/03/10 11:23:00;;;;;;;;;0.00;0.00;;;;;;;;4971991;28;11141;-76
2023/03/10 11:25:37;;;;;;;;;0.75;0.00;;;;;;;;4974654;28;10990;-78
2023/03/10 11:28:22;;;;;;;;;0.75;0.75;;;;;;;;4982091;28;11108;-74
2023/03/10 11:30:55;;;;;;;;;0.00;0.00;;;;;;;;4969235;28;12400;-77
2023/03/10 11:33:31;;;;;;;;;0.25;0.25;;;;;;;;4972196;28;10998;-75
2023/03/10 11:36:06;;;;;;;;;0.50;0.00;;;;;;;;4967957;28;11048;-76
2023/03/10 11:38:37;;;;;;;;;0.75;0.75;;;;;;;;4971118;28;10995;-79
2023/03/10 11:41:08;;;;;;;;;1.00;1.00;;;;;;;;4977354;28;10846;-80
2023/03/10 11:43:43;;;;;;;;;2.50;1.00;;;;;;;;4978390;28;11215;-78
2023/03/10 11:46:16;;;;;;;;;1.25;1.00;;;;;;;;4971141;28;12269;-78
2023/03/10 11:49:03;;;;;;;;;6.25;1.00;;;;;;;;4972060;28;11198;-81
2023/03/10 11:51:37;;;;;;;;;1.25;1.25;;;;;;;;4980486;28;11169;-84
2023/03/10 11:54:13;;;;;;;;;2.00;2.00;;;;;;;;4972186;28;11279;-81
2023/03/10 11:56:40;;;;;;;;;1.00;1.00;;;;;;;;4973261;28;11143;-78
2023/03/10 11:59:12;;;;;;;;;1.00;1.00;;;;;;;;4973285;28;11264;-76
2023/03/10 12:01:45;;;;;;;;;2.00;1.75;;;;;;;;4974768;28;11144;-78
2023/03/10 12:04:18;;;;;;;;;1.00;1.00;;;;;;;;4973825;28;11177;-85
2023/03/10 12:06:50;;;;;;;;;2.00;2.00;;;;;;;;4976157;28;10873;-77
2023/03/10 12:09:30;;;;;;;;;3.00;1.00;;;;;;;;4979783;28;10967;-77
2023/03/10 12:11:57;;;;;;;;;1.00;0.00;;;;;;;;4972615;28;10960;-77
2023/03/10 12:14:25;;;;;;;;;3.00;1.00;;;;;;;;4971880;28;10972;-77
2023/03/10 12:16:54;;;;;;;;;1.50;1.00;;;;;;;;4974244;28;11082;-79
2023/03/10 12:19:23;;;;;;;;;1.00;1.00;;;;;;;;4973535;28;11159;-83
2023/03/10 12:22:23;;;;;;;;;2.00;2.00;;;;;;;;4968957;28;11493;-75
2023/03/10 12:24:53;;;;;;;;;1.00;1.00;;;;;;;;4972274;28;12406;-78
2023/03/10 12:27:20;;;;;;;;;1.75;1.75;;;;;;;;4973949;28;11530;-81
2023/03/10 12:29:48;;;;;;;;;1.25;1.00;;;;;;;;4968840;28;11500;-73
2023/03/10 12:32:41;;;;;;;;;1.25;1.00;;;;;;;;4967579;28;11464;-75
2023/03/10 12:36:05;;;;;;;;;1.50;0.50;;;;;;;;4971671;28;11543;-74
2023/03/10 12:38:42;;;;;;;;;1.50;1.50;;;;;;;;4935113;28;11382;-75
2023/03/10 12:41:10;;;;;;;;;3.25;1.00;;;;;;;;4934924;28;11464;-75
2023/03/10 12:44:07;;;;;;;;;1.75;1.00;;;;;;;;4934556;28;11481;-74
2023/03/10 12:46:45;;;;;;;;;1.00;1.00;;;;;;;;4894336;28;11487;-74
2023/03/10 12:49:29;;;;;;;;;0.00;0.00;;;;;;;;4938606;28;11533;-73
2023/03/10 12:52:13;;;;;;;;;0.50;0.50;;;;;;;;4938678;28;11459;-76
2023/03/10 12:54:49;;;;;;;;;1.25;0.75;;;;;;;;4923093;29;11591;-76
2023/03/10 12:57:19;;;;;;;;;1.00;0.00;;;;;;;;4963181;28;11528;-77
2023/03/10 12:59:56;;;;;;;;;0.00;0.00;;;;;;;;4972593;28;11493;-77
2023/03/10 13:02:30;;;;;;;;;0.00;0.00;;;;;;;;4975668;28;11502;-74
2023/03/10 13:05:02;;;;;;;;;0.00;0.00;;;;;;;;4978077;28;11487;-74
2023/03/10 13:07:32;;;;;;;;;1.00;1.00;;;;;;;;4976010;28;11584;-77
2023/03/10 13:10:01;;;;;;;;;0.00;0.00;;;;;;;;4963107;28;11496;-76
2023/03/10 13:12:32;;;;;;;;;1.00;0.00;;;;;;;;4978344;28;11497;-76
2023/03/10 13:15:03;;;;;;;;;1.00;1.00;;;;;;;;4979540;28;12341;-75
2023/03/10 13:17:32;;;;;;;;;0.00;0.00;;;;;;;;4975141;28;11470;-76
2023/03/10 13:20:04;;;;;;;;;0.00;0.00;;;;;;;;4978883;28;11568;-76
2023/03/10 13:22:34;;;;;;;;;1.00;1.00;;;;;;;;4989572;28;11585;-77
2023/03/10 13:25:04;;;;;;;;;0.00;0.00;;;;;;;;4973365;28;11495;-75
2023/03/10 13:27:33;;;;;;;;;0.50;0.50;;;;;;;;4989126;28;11491;-77
2023/03/10 13:30:03;;;;;;;;;0.00;0.00;;;;;;;;4978750;28;11501;-74
2023/03/10 13:32:31;;;;;;;;;0.00;0.00;;;;;;;;4972566;28;11539;-75
2023/03/10 13:34:59;;;;;;;;;1.00;1.00;;;;;;;;4979174;28;11532;-75
2023/03/10 13:37:26;;;;;;;;;1.00;1.00;;;;;;;;4979230;28;11485;-76
2023/03/10 13:40:08;;;;;;;;;0.00;0.00;;;;;;;;4977727;28;11483;-80
2023/03/10 13:42:36;;;;;;;;;0.00;0.00;;;;;;;;4978114;28;11492;-76
2023/03/10 13:45:04;;;;;;;;;0.00;0.00;;;;;;;;4977028;28;12283;-73
2023/03/10 13:47:32;;;;;;;;;0.00;0.00;;;;;;;;4977756;28;11469;-75
2023/03/10 13:50:01;;;;;;;;;0.00;0.00;;;;;;;;4974864;28;12293;-75
2023/03/10 13:52:30;;;;;;;;;0.00;0.00;;;;;;;;4969118;28;11512;-75
2023/03/10 13:55:12;;;;;;;;;1.00;1.00;;;;;;;;4975429;28;11561;-78
2023/03/10 13:57:41;;;;;;;;;0.00;0.00;;;;;;;;4976190;28;11544;-73
2023/03/10 14:00:13;;;;;;;;;0.50;0.50;;;;;;;;4976830;28;11590;-74
2023/03/10 14:02:43;;;;;;;;;1.00;1.00;;;;;;;;4974907;28;11561;-74
2023/03/10 14:05:37;;;;;;;;;1.00;1.00;;;;;;;;4973289;28;11693;-74
2023/03/10 14:08:05;;;;;;;;;0.25;0.25;;;;;;;;4972534;28;11586;-75
2023/03/10 14:10:53;;;;;;;;;0.00;0.00;;;;;;;;4974426;28;11466;-74
2023/03/10 14:13:44;;;;;;;;;0.00;0.00;;;;;;;;4968897;28;11544;-75
2023/03/10 14:16:12;;;;;;;;;0.50;0.50;;;;;;;;4974117;28;11567;-73
2023/03/10 14:18:42;;;;;;;;;0.50;0.50;;;;;;;;4971591;28;11661;-74
2023/03/10 14:21:33;;;;;;;;;0.75;0.75;;;;;;;;4971002;28;11592;-74
2023/03/10 14:24:11;;;;;;;;;0.00;0.00;;;;;;;;4966705;28;11594;-75
2023/03/10 14:26:40;;;;;;;;;0.00;0.00;;;;;;;;4971228;28;11545;-75
2023/03/10 14:29:13;;;;;;;;;0.00;0.00;;;;;;;;4969924;28;11537;-75
2023/03/10 14:31:41;;;;;;;;;2.50;1.00;;;;;;;;4968891;28;11654;-75
2023/03/10 14:34:12;;;;;;;;;1.00;1.00;;;;;;;;4980142;28;11567;-76
2023/03/10 14:36:39;;;;;;;;;1.50;0.75;;;;;;;;4973802;28;11534;-75
2023/03/10 14:39:07;;;;;;;;;0.00;0.00;;;;;;;;4973423;28;11546;-75
2023/03/10 14:41:35;;;;;;;;;0.00;0.00;;;;;;;;4969835;28;11555;-75
2023/03/10 14:44:04;;;;;;;;;0.00;0.00;;;;;;;;4975441;28;11598;-75
2023/03/10 14:46:33;;;;;;;;;3.00;0.00;;;;;;;;4978541;28;11538;-76
2023/03/10 14:49:01;;;;;;;;;0.00;0.00;;;;;;;;4971405;28;11562;-76
2023/03/10 14:51:28;;;;;;;;;0.00;0.00;;;;;;;;4974334;28;11550;-76
2023/03/10 14:53:56;;;;;;;;;0.00;0.00;;;;;;;;4968275;28;12364;-76
2023/03/10 14:56:23;;;;;;;;;0.00;0.00;;;;;;;;4974552;28;11607;-76
2023/03/10 14:58:53;;;;;;;;;0.00;0.00;;;;;;;;4967944;28;11578;-75
2023/03/10 15:01:24;;;;;;;;;0.00;0.00;;;;;;;;4968633;28;11544;-77
2023/03/10 15:03:52;;;;;;;;;0.00;0.00;;;;;;;;4969469;28;11590;-76
2023/03/10 15:06:20;;;;;;;;;0.00;0.00;;;;;;;;4966898;28;11600;-75